createdAt,value
2023-03-24T00:00:14.120Z,995.68
2023-03-24T00:01:14.155Z,995.65
2023-03-24T00:02:14.193Z,995.58
2023-03-24T00:03:14.354Z,995.67
2023-03-24T00:04:14.265Z,995.62
2023-03-24T00:05:14.236Z,995.62
2023-03-24T00:06:14.265Z,995.57
2023-03-24T00:07:14.296Z,995.56
2023-03-24T00:08:14.326Z,995.51
2023-03-24T00:09:14.339Z,995.56
2023-03-24T00:10:14.355Z,995.52
2023-03-24T00:11:14.403Z,995.47
2023-03-24T00:12:14.407Z,995.35
2023-03-24T00:13:14.426Z,995.49
2023-03-24T00:14:14.467Z,995.44
2023-03-24T00:15:14.496Z,995.48
2023-03-24T00:16:14.552Z,995.49
2023-03-24T00:17:14.525Z,995.38
2023-03-24T00:18:14.555Z,995.33
2023-03-24T00:19:14.565Z,995.35
2023-03-24T00:20:14.601Z,995.34
2023-03-24T00:21:14.613Z,995.32
2023-03-24T00:22:14.645Z,995.33
2023-03-24T00:23:14.660Z,995.28
2023-03-24T00:24:14.684Z,995.29
2023-03-24T00:25:14.706Z,995.28
2023-03-24T00:26:14.740Z,995.23
2023-03-24T00:27:14.758Z,995.33
2023-03-24T00:28:14.776Z,995.26
2023-03-24T00:29:14.811Z,995.18
2023-03-24T00:30:14.878Z,995.14
2023-03-24T00:31:14.983Z,995.16
2023-03-24T00:32:14.885Z,995.15
2023-03-24T00:33:14.903Z,995.14
2023-03-24T00:34:14.920Z,995.11
2023-03-24T00:35:14.976Z,995.10
2023-03-24T00:36:15.027Z,995.07
2023-03-24T00:37:14.994Z,995.10
2023-03-24T00:38:15.047Z,995.05
2023-03-24T00:39:15.053Z,995.09
2023-03-24T00:40:15.092Z,995.07
2023-03-24T00:41:15.088Z,995.04
2023-03-24T00:42:15.122Z,995.04
2023-03-24T00:43:15.172Z,995.00
2023-03-24T00:44:15.159Z,995.04
2023-03-24T00:45:15.185Z,994.99
2023-03-24T00:46:15.226Z,995.02
2023-03-24T00:47:15.245Z,995.04
2023-03-24T00:48:15.255Z,995.01
2023-03-24T00:49:15.277Z,994.99
2023-03-24T00:50:15.304Z,994.93
2023-03-24T00:51:15.327Z,994.91
2023-03-24T00:52:15.380Z,994.85
2023-03-24T00:53:15.376Z,994.79
2023-03-24T00:54:15.395Z,994.90
2023-03-24T00:55:15.436Z,994.92
2023-03-24T00:56:15.459Z,994.93
2023-03-24T00:57:15.464Z,994.91
2023-03-24T00:58:15.495Z,994.86
2023-03-24T00:59:15.512Z,994.90
2023-03-24T01:00:15.537Z,994.78
2023-03-24T01:01:15.555Z,994.77
2023-03-24T01:02:15.598Z,994.79
2023-03-24T01:03:15.641Z,994.73
2023-03-24T01:04:15.626Z,994.73
2023-03-24T01:05:15.651Z,994.75
2023-03-24T01:06:15.683Z,994.71
2023-03-24T01:07:15.698Z,994.71
2023-03-24T01:08:15.719Z,994.65
2023-03-24T01:09:15.761Z,994.69
2023-03-24T01:10:15.770Z,994.63
2023-03-24T01:11:15.788Z,994.66
2023-03-24T01:12:15.813Z,994.62
2023-03-24T01:13:15.838Z,994.62
2023-03-24T01:14:15.860Z,994.67
2023-03-24T01:15:15.880Z,994.60
2023-03-24T01:16:15.944Z,994.57
2023-03-24T01:17:16.030Z,994.42
2023-03-24T01:18:15.968Z,994.44
2023-03-24T01:19:15.980Z,994.48
2023-03-24T01:20:16.010Z,994.53
2023-03-24T01:21:16.022Z,994.58
2023-03-24T01:22:16.055Z,994.48
2023-03-24T01:23:16.066Z,994.51
2023-03-24T01:24:16.098Z,994.46
2023-03-24T01:25:16.130Z,994.47
2023-03-24T01:26:16.140Z,994.42
2023-03-24T01:27:16.166Z,994.36
2023-03-24T01:28:16.185Z,994.30
2023-03-24T01:29:16.208Z,994.30
2023-03-24T01:30:16.241Z,994.28
2023-03-24T01:31:16.275Z,994.26
2023-03-24T01:32:16.288Z,994.31
2023-03-24T01:33:16.306Z,994.26
2023-03-24T01:34:16.324Z,994.24
2023-03-24T01:35:16.365Z,994.28
2023-03-24T01:36:16.393Z,994.26
2023-03-24T01:37:16.397Z,994.17
2023-03-24T01:38:16.418Z,994.21
2023-03-24T01:39:16.439Z,994.11
2023-03-24T01:40:16.470Z,994.05
2023-03-24T01:41:16.502Z,994.06
2023-03-24T01:42:16.515Z,994.06
2023-03-24T01:43:16.542Z,994.08
2023-03-24T01:44:16.580Z,994.05
2023-03-24T01:45:16.582Z,994.06
2023-03-24T01:46:16.735Z,994.01
2023-03-24T01:47:16.634Z,994.02
2023-03-24T01:48:16.668Z,994.00
2023-03-24T01:49:16.701Z,993.97
2023-03-24T01:50:16.705Z,993.95
2023-03-24T01:51:16.749Z,993.92
2023-03-24T01:52:16.753Z,993.87
2023-03-24T01:53:16.795Z,993.82
2023-03-24T01:54:16.809Z,993.80
2023-03-24T01:55:16.826Z,993.75
2023-03-24T01:56:16.862Z,993.71
2023-03-24T01:57:16.871Z,993.67
2023-03-24T01:58:16.917Z,993.70
2023-03-24T01:59:16.920Z,993.76
2023-03-24T02:00:16.946Z,993.77
2023-03-24T02:01:17.000Z,993.80
2023-03-24T02:02:16.989Z,993.78
2023-03-24T02:03:17.026Z,993.79
2023-03-24T02:04:17.118Z,993.72
2023-03-24T02:05:17.135Z,993.73
2023-03-24T02:06:17.082Z,993.64
2023-03-24T02:07:17.103Z,993.65
2023-03-24T02:08:17.130Z,993.65
2023-03-24T02:09:17.160Z,993.61
2023-03-24T02:10:17.181Z,993.61
2023-03-24T02:11:17.202Z,993.65
2023-03-24T02:12:17.224Z,993.67
2023-03-24T02:13:17.262Z,993.69
2023-03-24T02:14:17.275Z,993.68
2023-03-24T02:15:17.315Z,993.64
2023-03-24T02:16:17.350Z,993.60
2023-03-24T02:17:17.360Z,993.60
2023-03-24T02:18:17.367Z,993.64
2023-03-24T02:19:17.396Z,993.58
2023-03-24T02:20:17.439Z,993.57
2023-03-24T02:21:17.452Z,993.62
2023-03-24T02:22:17.471Z,993.54
2023-03-24T02:23:17.485Z,993.53
2023-03-24T02:24:17.516Z,993.48
2023-03-24T02:25:17.547Z,993.53
2023-03-24T02:26:17.557Z,993.50
2023-03-24T02:27:17.577Z,993.50
2023-03-24T02:28:17.609Z,993.45
2023-03-24T02:29:17.636Z,993.42
2023-03-24T02:30:17.680Z,993.40
2023-03-24T02:31:17.711Z,993.35
2023-03-24T02:32:17.698Z,993.28
2023-03-24T02:33:17.726Z,993.33
2023-03-24T02:34:17.751Z,993.18
2023-03-24T02:35:17.780Z,993.15
2023-03-24T02:36:17.825Z,993.25
2023-03-24T02:37:17.817Z,993.20
2023-03-24T02:38:17.843Z,993.23
2023-03-24T02:39:17.864Z,993.15
2023-03-24T02:40:17.899Z,993.19
2023-03-24T02:41:17.914Z,993.18
2023-03-24T02:42:17.958Z,993.18
2023-03-24T02:43:17.968Z,993.11
2023-03-24T02:44:17.983Z,993.03
2023-03-24T02:45:18.017Z,992.97
2023-03-24T02:46:18.044Z,993.00
2023-03-24T02:47:18.056Z,992.92
2023-03-24T02:48:18.079Z,992.95
2023-03-24T02:49:18.108Z,992.89
2023-03-24T02:50:18.125Z,992.88
2023-03-24T02:51:18.147Z,992.85
2023-03-24T02:52:18.169Z,992.86
2023-03-24T02:53:18.192Z,992.86
2023-03-24T02:54:18.219Z,992.89
2023-03-24T02:55:18.333Z,992.90
2023-03-24T02:56:18.272Z,992.87
2023-03-24T02:57:18.286Z,992.85
2023-03-24T02:58:18.365Z,992.79
2023-03-24T02:59:18.332Z,992.76
2023-03-24T03:00:18.384Z,992.74
2023-03-24T03:01:18.524Z,992.72
2023-03-24T03:02:18.415Z,992.69
2023-03-24T03:03:18.431Z,992.65
2023-03-24T03:04:18.504Z,992.70
2023-03-24T03:05:18.475Z,992.70
2023-03-24T03:06:18.619Z,992.72
2023-03-24T03:07:18.517Z,992.76
2023-03-24T03:08:18.546Z,992.65
2023-03-24T03:09:18.571Z,992.69
2023-03-24T03:10:18.596Z,992.71
2023-03-24T03:11:18.669Z,992.70
2023-03-24T03:12:18.653Z,992.77
2023-03-24T03:13:18.663Z,992.72
2023-03-24T03:14:18.699Z,992.71
2023-03-24T03:15:18.718Z,992.65
2023-03-24T03:16:18.761Z,992.63
2023-03-24T03:17:18.757Z,992.61
2023-03-24T03:18:18.814Z,992.56
2023-03-24T03:19:18.819Z,992.54
2023-03-24T03:20:18.832Z,992.53
2023-03-24T03:21:18.874Z,992.54
2023-03-24T03:22:18.892Z,992.55
2023-03-24T03:23:18.920Z,992.51
2023-03-24T03:24:18.976Z,992.47
2023-03-24T03:25:18.954Z,992.47
2023-03-24T03:26:18.979Z,992.44
2023-03-24T03:27:19.019Z,992.39
2023-03-24T03:28:19.023Z,992.35
2023-03-24T03:29:19.057Z,992.39
2023-03-24T03:30:19.090Z,992.36
2023-03-24T03:31:19.141Z,992.30
2023-03-24T03:32:19.152Z,992.30
2023-03-24T03:33:19.140Z,992.27
2023-03-24T03:34:19.169Z,992.23
2023-03-24T03:35:19.211Z,992.19
2023-03-24T03:36:19.240Z,992.19
2023-03-24T03:37:19.240Z,992.17
2023-03-24T03:38:19.277Z,992.18
2023-03-24T03:39:19.287Z,992.16
2023-03-24T03:40:19.336Z,992.14
2023-03-24T03:41:19.348Z,992.14
2023-03-24T03:42:19.366Z,992.19
2023-03-24T03:43:19.398Z,992.19
2023-03-24T03:44:19.406Z,992.20
2023-03-24T03:45:19.440Z,992.20
2023-03-24T03:46:19.488Z,992.22
2023-03-24T03:47:19.477Z,992.23
2023-03-24T03:48:19.512Z,992.21
2023-03-24T03:49:19.534Z,992.15
2023-03-24T03:50:19.556Z,992.16
2023-03-24T03:51:19.574Z,992.14
2023-03-24T03:52:19.754Z,992.12
2023-03-24T03:53:19.620Z,992.06
2023-03-24T03:54:19.646Z,992.05
2023-03-24T03:55:19.672Z,992.03
2023-03-24T03:56:19.698Z,992.04
2023-03-24T03:57:19.714Z,992.00
2023-03-24T03:58:19.745Z,991.97
2023-03-24T03:59:19.763Z,991.98
2023-03-24T04:00:19.796Z,991.96
2023-03-24T04:01:19.810Z,991.97
2023-03-24T04:02:19.865Z,992.01
2023-03-24T04:03:19.960Z,991.99
2023-03-24T04:04:19.887Z,992.01
2023-03-24T04:05:19.923Z,992.05
2023-03-24T04:06:19.928Z,992.07
2023-03-24T04:07:19.957Z,992.07
2023-03-24T04:08:19.973Z,992.07
2023-03-24T04:09:20.008Z,992.08
2023-03-24T04:10:20.039Z,992.05
2023-03-24T04:11:20.054Z,992.01
2023-03-24T04:12:20.075Z,991.96
2023-03-24T04:13:20.115Z,991.98
2023-03-24T04:14:20.114Z,992.03
2023-03-24T04:15:20.167Z,992.04
2023-03-24T04:16:20.208Z,992.02
2023-03-24T04:17:20.190Z,992.06
2023-03-24T04:18:20.237Z,992.01
2023-03-24T04:19:20.238Z,992.00
2023-03-24T04:20:20.268Z,991.99
2023-03-24T04:21:20.285Z,991.94
2023-03-24T04:22:20.444Z,991.94
2023-03-24T04:23:20.349Z,991.97
2023-03-24T04:24:20.353Z,991.94
2023-03-24T04:25:20.401Z,991.93
2023-03-24T04:26:20.408Z,991.90
2023-03-24T04:27:20.423Z,991.94
2023-03-24T04:28:20.504Z,991.98
2023-03-24T04:29:20.470Z,992.02
2023-03-24T04:30:20.501Z,992.00
2023-03-24T04:31:20.545Z,992.03
2023-03-24T04:32:20.560Z,992.05
2023-03-24T04:33:20.583Z,992.05
2023-03-24T04:34:20.602Z,992.01
2023-03-24T04:35:20.655Z,992.01
2023-03-24T04:36:20.680Z,992.00
2023-03-24T04:37:20.707Z,991.97
2023-03-24T04:38:20.682Z,992.04
2023-03-24T04:39:20.705Z,992.01
2023-03-24T04:40:20.768Z,992.01
2023-03-24T04:41:20.773Z,991.98
2023-03-24T04:42:20.789Z,992.00
2023-03-24T04:43:20.816Z,992.00
2023-03-24T04:44:20.829Z,992.04
2023-03-24T04:45:20.853Z,991.97
2023-03-24T04:46:20.907Z,992.04
2023-03-24T04:47:20.903Z,992.10
2023-03-24T04:48:20.923Z,992.05
2023-03-24T04:49:20.948Z,992.04
2023-03-24T04:50:20.987Z,992.03
2023-03-24T04:51:20.996Z,991.99
2023-03-24T04:52:21.025Z,991.96
2023-03-24T04:53:21.049Z,991.94
2023-03-24T04:54:21.069Z,991.97
2023-03-24T04:55:21.091Z,991.96
2023-03-24T04:56:21.110Z,991.92
2023-03-24T04:57:21.138Z,991.91
2023-03-24T04:58:21.173Z,991.91
2023-03-24T04:59:21.182Z,991.88
2023-03-24T05:00:21.224Z,991.96
2023-03-24T05:01:21.361Z,991.91
2023-03-24T05:02:21.788Z,991.93
2023-03-24T05:03:21.278Z,991.99
2023-03-24T05:04:21.329Z,991.92
2023-03-24T05:05:21.331Z,991.95
2023-03-24T05:06:21.352Z,991.99
2023-03-24T05:07:21.377Z,991.95
2023-03-24T05:08:21.398Z,991.93
2023-03-24T05:09:21.504Z,991.96
2023-03-24T05:10:22.033Z,991.98
2023-03-24T05:11:21.480Z,992.04
2023-03-24T05:12:21.508Z,992.11
2023-03-24T05:13:21.516Z,992.12
2023-03-24T05:14:21.535Z,992.10
2023-03-24T05:15:21.560Z,992.16
2023-03-24T05:16:21.612Z,992.18
2023-03-24T05:17:21.623Z,992.13
2023-03-24T05:18:21.641Z,992.14
2023-03-24T05:19:21.683Z,992.17
2023-03-24T05:20:21.715Z,992.21
2023-03-24T05:21:21.702Z,992.17
2023-03-24T05:22:21.733Z,992.16
2023-03-24T05:23:21.763Z,992.21
2023-03-24T05:24:21.797Z,992.20
2023-03-24T05:25:21.795Z,992.05
2023-03-24T05:26:21.823Z,992.05
2023-03-24T05:27:21.846Z,992.13
2023-03-24T05:28:21.865Z,992.20
2023-03-24T05:29:21.898Z,992.35
2023-03-24T05:30:21.953Z,992.37
2023-03-24T05:31:21.956Z,992.45
2023-03-24T05:32:21.967Z,992.60
2023-03-24T05:33:21.988Z,992.62
2023-03-24T05:34:22.012Z,992.61
2023-03-24T05:35:22.035Z,992.58
2023-03-24T05:36:22.065Z,992.56
2023-03-24T05:37:22.083Z,992.58
2023-03-24T05:38:22.105Z,992.72
2023-03-24T05:39:22.170Z,992.45
2023-03-24T05:40:22.165Z,992.70
2023-03-24T05:41:22.175Z,992.75
2023-03-24T05:42:22.206Z,992.64
2023-03-24T05:43:22.227Z,992.68
2023-03-24T05:44:22.260Z,992.69
2023-03-24T05:45:22.296Z,992.77
2023-03-24T05:46:24.516Z,992.77
2023-03-24T05:47:22.319Z,992.81
2023-03-24T05:48:22.352Z,992.80
2023-03-24T05:49:22.371Z,992.78
2023-03-24T05:50:22.393Z,992.85
2023-03-24T05:51:22.409Z,992.92
2023-03-24T05:52:22.437Z,992.94
2023-03-24T05:53:22.467Z,992.89
2023-03-24T05:54:22.482Z,992.96
2023-03-24T05:55:22.517Z,993.01
2023-03-24T05:56:22.541Z,993.07
2023-03-24T05:57:22.579Z,993.07
2023-03-24T05:58:22.573Z,993.07
2023-03-24T05:59:22.602Z,993.10
2023-03-24T06:00:22.625Z,993.16
2023-03-24T06:01:22.650Z,993.11
2023-03-24T06:02:22.731Z,993.13
2023-03-24T06:03:22.778Z,993.23
2023-03-24T06:04:22.751Z,993.26
2023-03-24T06:05:22.742Z,993.31
2023-03-24T06:06:22.771Z,993.30
2023-03-24T06:07:22.788Z,993.33
2023-03-24T06:08:22.816Z,993.44
2023-03-24T06:09:22.866Z,993.50
2023-03-24T06:10:22.872Z,993.54
2023-03-24T06:11:22.880Z,993.54
2023-03-24T06:12:22.943Z,993.56
2023-03-24T06:13:22.928Z,993.67
2023-03-24T06:14:22.979Z,993.72
2023-03-24T06:15:22.999Z,993.77
2023-03-24T06:16:23.072Z,993.74
2023-03-24T06:17:23.068Z,993.71
2023-03-24T06:18:23.059Z,993.77
2023-03-24T06:19:23.068Z,993.78
2023-03-24T06:20:23.098Z,993.86
2023-03-24T06:21:23.122Z,994.04
2023-03-24T06:22:23.139Z,993.96
2023-03-24T06:23:23.162Z,994.04
2023-03-24T06:24:23.218Z,994.04
2023-03-24T06:25:23.209Z,994.06
2023-03-24T06:26:23.250Z,994.10
2023-03-24T06:27:23.268Z,994.21
2023-03-24T06:28:23.272Z,994.23
2023-03-24T06:29:23.304Z,994.23
2023-03-24T06:30:23.347Z,994.23
2023-03-24T06:31:23.420Z,994.30
2023-03-24T06:32:23.373Z,994.26
2023-03-24T06:33:23.399Z,994.33
2023-03-24T06:34:23.420Z,994.34
2023-03-24T06:35:23.437Z,994.36
2023-03-24T06:36:23.545Z,994.40
2023-03-24T06:37:23.501Z,994.45
2023-03-24T06:38:23.510Z,994.39
2023-03-24T06:39:23.532Z,994.44
2023-03-24T06:40:23.551Z,994.32
2023-03-24T06:41:23.598Z,994.36
2023-03-24T06:42:23.606Z,994.21
2023-03-24T06:43:23.635Z,994.48
2023-03-24T06:44:23.649Z,994.43
2023-03-24T06:45:23.675Z,994.52
2023-03-24T06:46:23.726Z,994.45
2023-03-24T06:47:23.716Z,994.53
2023-03-24T06:48:23.746Z,994.60
2023-03-24T06:49:23.773Z,994.63
2023-03-24T06:50:23.787Z,994.66
2023-03-24T06:51:23.808Z,994.72
2023-03-24T06:52:23.836Z,994.76
2023-03-24T06:53:23.858Z,994.72
2023-03-24T06:54:23.880Z,994.78
2023-03-24T06:55:23.917Z,994.66
2023-03-24T06:56:23.924Z,994.70
2023-03-24T06:57:23.955Z,994.68
2023-03-24T06:58:23.976Z,994.77
2023-03-24T06:59:24.001Z,994.73
2023-03-24T07:00:24.026Z,994.83
2023-03-24T07:01:24.127Z,994.90
2023-03-24T07:02:24.135Z,994.71
2023-03-24T07:03:24.181Z,994.84
2023-03-24T07:04:24.112Z,994.86
2023-03-24T07:05:24.180Z,994.84
2023-03-24T07:06:24.154Z,994.85
2023-03-24T07:08:37.400Z,994.90
2023-03-24T07:09:24.222Z,994.75
2023-03-24T07:10:24.245Z,994.82
2023-03-24T07:11:24.312Z,994.89
2023-03-24T07:12:24.293Z,994.82
2023-03-24T07:13:24.313Z,994.82
2023-03-24T07:14:24.336Z,994.92
2023-03-24T07:15:24.364Z,994.88
2023-03-24T07:16:24.433Z,994.92
2023-03-24T07:17:25.307Z,994.99
2023-03-24T07:18:24.432Z,994.90
2023-03-24T07:19:24.462Z,995.00
2023-03-24T07:20:24.480Z,995.02
2023-03-24T07:21:24.500Z,995.09
2023-03-24T07:22:24.603Z,995.10
2023-03-24T07:23:24.554Z,995.09
2023-03-24T07:24:24.575Z,995.08
2023-03-24T07:25:24.617Z,995.10
2023-03-24T07:26:24.625Z,995.13
2023-03-24T07:27:24.638Z,995.15
2023-03-24T07:28:24.665Z,995.18
2023-03-24T07:29:24.697Z,995.20
2023-03-24T07:30:33.390Z,995.17
2023-03-24T07:31:24.822Z,995.20
2023-03-24T07:32:24.802Z,995.21
2023-03-24T07:33:24.825Z,995.18
2023-03-24T07:34:24.804Z,995.23
2023-03-24T07:35:24.847Z,995.21
2023-03-24T07:36:24.921Z,995.21
2023-03-24T07:37:24.879Z,995.31
2023-03-24T07:38:24.912Z,995.27
2023-03-24T07:39:24.926Z,995.30
2023-03-24T07:40:24.939Z,995.31
2023-03-24T07:41:24.969Z,995.29
2023-03-24T07:42:25.220Z,995.28
2023-03-24T07:43:25.034Z,995.29
2023-03-24T07:44:25.051Z,995.29
2023-03-24T07:45:25.118Z,995.38
2023-03-24T07:46:25.166Z,995.29
2023-03-24T07:47:26.136Z,995.39
2023-03-24T07:48:25.140Z,995.33
2023-03-24T07:49:25.160Z,995.34
2023-03-24T07:50:25.190Z,995.27
2023-03-24T07:51:25.205Z,995.31
2023-03-24T07:52:25.230Z,995.36
2023-03-24T07:53:25.274Z,995.32
2023-03-24T07:54:25.281Z,995.35
2023-03-24T07:55:25.349Z,995.29
2023-03-24T07:56:25.324Z,995.33
2023-03-24T07:57:25.363Z,995.28
2023-03-24T07:58:25.373Z,995.30
2023-03-24T07:59:26.747Z,995.34
2023-03-24T08:00:25.467Z,995.25
2023-03-24T08:01:25.449Z,995.27
2023-03-24T08:02:25.605Z,995.25
2023-03-24T08:03:25.619Z,995.22
2023-03-24T08:04:25.536Z,995.22
2023-03-24T08:05:25.554Z,995.25
2023-03-24T08:06:25.565Z,995.29
2023-03-24T08:07:25.588Z,995.28
2023-03-24T08:08:25.607Z,995.37
2023-03-24T08:09:25.632Z,995.37
2023-03-24T08:10:25.674Z,995.43
2023-03-24T08:11:25.697Z,995.44
2023-03-24T08:12:25.834Z,995.43
2023-03-24T08:13:25.732Z,995.49
2023-03-24T08:14:26.280Z,995.47
2023-03-24T08:15:25.778Z,995.51
2023-03-24T08:16:25.831Z,995.42
2023-03-24T08:17:25.864Z,995.53
2023-03-24T08:18:25.979Z,995.50
2023-03-24T08:19:25.874Z,995.51
2023-03-24T08:20:25.935Z,995.45
2023-03-24T08:21:25.922Z,995.46
2023-03-24T08:22:26.294Z,995.55
2023-03-24T08:23:25.968Z,995.50
2023-03-24T08:24:26.007Z,995.55
2023-03-24T08:25:26.029Z,995.62
2023-03-24T08:26:26.044Z,995.62
2023-03-24T08:27:26.085Z,995.70
2023-03-24T08:28:26.086Z,995.76
2023-03-24T08:29:26.121Z,995.78
2023-03-24T08:30:26.242Z,995.67
2023-03-24T08:31:26.273Z,995.63
2023-03-24T08:32:26.221Z,995.69
2023-03-24T08:33:26.212Z,995.77
2023-03-24T08:34:26.234Z,995.75
2023-03-24T08:35:26.271Z,995.80
2023-03-24T08:36:26.295Z,995.83
2023-03-24T08:37:26.317Z,995.87
2023-03-24T08:38:26.337Z,995.85
2023-03-24T08:39:26.360Z,995.83
2023-03-24T08:40:26.388Z,995.86
2023-03-24T08:41:26.420Z,995.86
2023-03-24T08:42:26.432Z,995.89
2023-03-24T08:43:26.460Z,995.90
2023-03-24T08:44:26.481Z,995.93
2023-03-24T08:45:26.534Z,995.86
2023-03-24T08:46:26.631Z,995.92
2023-03-24T08:47:26.605Z,995.99
2023-03-24T08:48:26.586Z,995.99
2023-03-24T08:49:26.607Z,995.95
2023-03-24T08:50:26.638Z,995.98
2023-03-24T08:51:26.657Z,996.01
2023-03-24T08:52:26.689Z,995.95
2023-03-24T08:53:26.706Z,996.02
2023-03-24T08:54:26.734Z,996.08
2023-03-24T08:55:26.782Z,996.11
2023-03-24T08:56:26.836Z,996.10
2023-03-24T08:57:26.807Z,996.16
2023-03-24T08:58:26.838Z,996.08
2023-03-24T08:59:26.856Z,996.14
2023-03-24T09:00:26.882Z,996.11
2023-03-24T09:01:26.952Z,996.17
2023-03-24T09:02:26.941Z,996.14
2023-03-24T09:03:27.000Z,996.09
2023-03-24T09:04:27.019Z,996.08
2023-03-24T09:05:40.803Z,996.10
2023-03-24T09:06:27.035Z,996.11
2023-03-24T09:07:27.065Z,996.07
2023-03-24T09:08:27.195Z,996.03
2023-03-24T09:09:27.196Z,996.07
2023-03-24T09:10:27.134Z,996.03
2023-03-24T09:11:27.161Z,996.07
2023-03-24T09:12:27.181Z,996.00
2023-03-24T09:13:27.222Z,996.04
2023-03-24T09:14:27.233Z,995.98
2023-03-24T09:15:27.261Z,995.98
2023-03-24T09:16:27.352Z,996.02
2023-03-24T09:17:27.391Z,996.06
2023-03-24T09:18:27.337Z,996.04
2023-03-24T09:19:27.358Z,996.04
2023-03-24T09:20:27.389Z,995.99
2023-03-24T09:21:27.415Z,996.02
2023-03-24T09:22:27.438Z,995.95
2023-03-24T09:23:27.466Z,995.92
2023-03-24T09:24:27.494Z,995.97
2023-03-24T09:25:27.518Z,996.01
2023-03-24T09:26:27.550Z,996.01
2023-03-24T09:27:27.563Z,996.05
2023-03-24T09:28:27.678Z,996.10
2023-03-24T09:29:27.616Z,996.05
2023-03-24T09:30:29.265Z,995.98
2023-03-24T09:31:27.687Z,996.07
2023-03-24T09:32:27.739Z,996.12
2023-03-24T09:33:27.792Z,996.11
2023-03-24T09:34:27.746Z,996.03
2023-03-24T09:35:27.778Z,996.00
2023-03-24T09:36:29.029Z,996.00
2023-03-24T09:37:27.822Z,996.05
2023-03-24T09:38:27.867Z,996.05
2023-03-24T09:39:27.874Z,996.03
2023-03-24T09:40:27.908Z,996.07
2023-03-24T09:41:27.925Z,996.04
2023-03-24T09:42:27.946Z,996.06
2023-03-24T09:43:27.982Z,996.12
2023-03-24T09:44:28.001Z,996.08
2023-03-24T09:45:28.032Z,996.14
2023-03-24T09:46:28.122Z,996.13
2023-03-24T09:47:28.090Z,996.11
2023-03-24T09:48:28.107Z,996.15
2023-03-24T09:49:28.140Z,996.14
2023-03-24T09:50:28.172Z,996.12
2023-03-24T09:51:28.255Z,996.15
2023-03-24T09:52:28.207Z,996.14
2023-03-24T09:53:28.244Z,996.11
2023-03-24T09:54:28.259Z,996.15
2023-03-24T09:55:28.285Z,996.17
2023-03-24T09:56:28.342Z,996.18
2023-03-24T09:57:28.341Z,996.13
2023-03-24T09:58:28.366Z,996.21
2023-03-24T09:59:28.390Z,996.10
2023-03-24T10:00:28.454Z,996.18
2023-03-24T10:01:28.554Z,996.12
2023-03-24T10:02:28.538Z,996.12
2023-03-24T10:03:28.637Z,996.14
2023-03-24T10:04:28.525Z,996.19
2023-03-24T10:05:28.550Z,996.12
2023-03-24T10:06:28.587Z,996.08
2023-03-24T10:07:28.606Z,996.12
2023-03-24T10:08:30.014Z,996.01
2023-03-24T10:09:28.651Z,996.17
2023-03-24T10:10:28.679Z,996.17
2023-03-24T10:11:28.709Z,996.12
2023-03-24T10:12:28.737Z,996.12
2023-03-24T10:13:28.752Z,996.14
2023-03-24T10:14:28.777Z,996.15
2023-03-24T10:16:28.845Z,996.15
2023-03-24T10:17:28.887Z,996.14
2023-03-24T10:18:28.883Z,996.22
2023-03-24T10:19:28.908Z,996.16
2023-03-24T10:20:28.937Z,996.20
2023-03-24T10:21:28.961Z,996.24
2023-03-24T10:22:28.987Z,996.20
2023-03-24T10:23:29.112Z,996.24
2023-03-24T10:24:29.037Z,996.21
2023-03-24T10:25:29.065Z,996.16
2023-03-24T10:26:29.110Z,996.26
2023-03-24T10:27:29.149Z,996.23
2023-03-24T10:28:29.146Z,996.25
2023-03-24T10:29:29.165Z,996.29
2023-03-24T10:30:29.205Z,996.32
2023-03-24T10:31:29.282Z,996.39
2023-03-24T10:32:29.289Z,996.32
2023-03-24T10:33:29.274Z,996.34
2023-03-24T10:34:29.302Z,996.30
2023-03-24T10:35:29.331Z,996.34
2023-03-24T10:36:29.350Z,996.39
2023-03-24T10:37:29.389Z,996.25
2023-03-24T10:38:29.407Z,996.40
2023-03-24T10:39:41.987Z,996.37
2023-03-24T10:40:33.224Z,996.45
2023-03-24T10:41:29.524Z,996.44
2023-03-24T10:42:29.512Z,996.41
2023-03-24T10:43:29.546Z,996.42
2023-03-24T10:44:29.564Z,996.49
2023-03-24T10:45:29.595Z,996.46
2023-03-24T10:46:29.699Z,996.55
2023-03-24T10:47:31.509Z,996.46
2023-03-24T10:48:29.666Z,996.52
2023-03-24T10:49:29.692Z,996.54
2023-03-24T10:50:29.717Z,996.57
2023-03-24T10:51:29.741Z,996.50
2023-03-24T10:52:29.782Z,996.60
2023-03-24T10:53:29.790Z,996.51
2023-03-24T10:54:29.851Z,996.53
2023-03-24T10:55:29.849Z,996.54
2023-03-24T10:56:29.921Z,996.56
2023-03-24T10:57:29.901Z,996.61
2023-03-24T10:58:29.937Z,996.61
2023-03-24T10:59:29.951Z,996.59
2023-03-24T11:00:29.995Z,996.64
2023-03-24T11:01:30.069Z,996.61
2023-03-24T11:02:30.099Z,996.72
2023-03-24T11:03:30.129Z,996.64
2023-03-24T11:04:30.082Z,996.67
2023-03-24T11:05:30.117Z,996.59
2023-03-24T11:06:30.134Z,996.63
2023-03-24T11:07:30.159Z,996.58
2023-03-24T11:08:30.187Z,996.58
2023-03-24T11:09:30.211Z,996.60
2023-03-24T11:10:30.234Z,996.64
2023-03-24T11:11:30.307Z,996.67
2023-03-24T11:12:30.288Z,996.68
2023-03-24T11:13:30.311Z,996.61
2023-03-24T11:14:30.344Z,996.58
2023-03-24T11:15:30.445Z,996.61
2023-03-24T11:16:30.428Z,996.54
2023-03-24T11:17:30.464Z,996.60
2023-03-24T11:18:30.448Z,996.57
2023-03-24T11:19:30.477Z,996.63
2023-03-24T11:20:30.510Z,996.67
2023-03-24T11:21:30.546Z,996.60
2023-03-24T11:22:30.600Z,996.66
2023-03-24T11:23:30.581Z,996.65
2023-03-24T11:24:30.618Z,996.69
2023-03-24T11:25:33.285Z,996.73
2023-03-24T11:26:30.658Z,996.68
2023-03-24T11:27:30.686Z,996.49
2023-03-24T11:28:30.710Z,996.63
2023-03-24T11:29:30.738Z,996.71
2023-03-24T11:30:30.773Z,996.69
2023-03-24T11:31:30.945Z,996.64
2023-03-24T11:32:30.846Z,996.73
2023-03-24T11:33:35.629Z,996.68
2023-03-24T11:34:30.870Z,996.68
2023-03-24T11:35:41.253Z,996.72
2023-03-24T11:36:31.156Z,996.55
2023-03-24T11:37:30.949Z,996.73
2023-03-24T11:38:30.981Z,996.75
2023-03-24T11:39:31.006Z,996.75
2023-03-24T11:40:31.035Z,996.74
2023-03-24T11:41:31.056Z,996.70
2023-03-24T11:42:31.091Z,996.73
2023-03-24T11:43:31.121Z,996.70
2023-03-24T11:44:31.144Z,996.82
2023-03-24T11:45:31.170Z,996.84
2023-03-24T11:46:31.215Z,996.77
2023-03-24T11:47:31.291Z,996.77
2023-03-24T11:48:31.253Z,996.79
2023-03-24T11:49:31.291Z,996.74
2023-03-24T11:50:31.334Z,996.90
2023-03-24T11:51:31.335Z,996.90
2023-03-24T11:52:31.386Z,996.89
2023-03-24T11:53:31.389Z,996.80
2023-03-24T11:54:33.037Z,996.87
2023-03-24T11:55:31.472Z,996.84
2023-03-24T11:56:31.562Z,996.83
2023-03-24T11:57:31.514Z,996.78
2023-03-24T11:58:31.536Z,996.82
2023-03-24T11:59:31.552Z,996.78
2023-03-24T12:00:33.530Z,996.83
2023-03-24T12:01:31.607Z,996.77
2023-03-24T12:02:31.696Z,996.84
2023-03-24T12:03:31.707Z,996.84
2023-03-24T12:04:31.690Z,996.81
2023-03-24T12:05:31.738Z,996.76
2023-03-24T12:06:31.821Z,996.74
2023-03-24T12:07:31.768Z,996.78
2023-03-24T12:08:31.805Z,996.79
2023-03-24T12:09:31.824Z,996.80
2023-03-24T12:10:31.850Z,996.78
2023-03-24T12:11:31.876Z,996.75
2023-03-24T12:12:33.218Z,996.77
2023-03-24T12:13:32.987Z,996.77
2023-03-24T12:14:31.960Z,996.78
2023-03-24T12:15:32.075Z,996.81
2023-03-24T12:16:32.038Z,996.79
2023-03-24T12:17:32.078Z,996.78
2023-03-24T12:18:32.068Z,996.83
2023-03-24T12:19:32.087Z,996.76
2023-03-24T12:20:32.123Z,996.79
2023-03-24T12:21:32.723Z,996.75
2023-03-24T12:22:32.171Z,996.77
2023-03-24T12:23:32.198Z,996.75
2023-03-24T12:24:32.234Z,996.81
2023-03-24T12:25:32.269Z,996.77
2023-03-24T12:26:32.286Z,996.75
2023-03-24T12:27:32.305Z,996.68
2023-03-24T12:28:32.346Z,996.67
2023-03-24T12:29:32.359Z,996.65
2023-03-24T12:30:32.388Z,996.70